sensor_id;sensor_type;location;lat;lon;timestamp;P1;durP1;ratioP1;P2;durP2;ratioP2
2644;SDS011;15377;48.540;9.268;2022-12-18T00:01:27;56.78;;;24.83;;
2644;SDS011;15377;48.540;9.268;2022-12-18T00:03:58;59.20;;;28.05;;
2644;SDS011;15377;48.540;9.268;2022-12-18T00:06:25;35.05;;;16.90;;
2644;SDS011;15377;48.540;9.268;2022-12-18T00:08:53;60.30;;;22.95;;
2644;SDS011;15377;48.540;9.268;2022-12-18T00:11:21;52.20;;;18.77;;
2644;SDS011;15377;48.540;9.268;2022-12-18T00:13:48;57.92;;;24.08;;
2644;SDS011;15377;48.540;9.268;2022-12-18T00:16:15;46.40;;;23.30;;
2644;SDS011;15377;48.540;9.268;2022-12-18T00:18:46;55.03;;;23.88;;
2644;SDS011;15377;48.540;9.268;2022-12-18T00:21:13;58.60;;;26.50;;
2644;SDS011;15377;48.540;9.268;2022-12-18T00:23:39;63.33;;;26.97;;
2644;SDS011;15377;48.540;9.268;2022-12-18T00:26:06;61.83;;;26.40;;
2644;SDS011;15377;48.540;9.268;2022-12-18T00:28:40;54.85;;;25.45;;
2644;SDS011;15377;48.540;9.268;2022-12-18T00:31:10;57.80;;;25.47;;
2644;SDS011;15377;48.540;9.268;2022-12-18T00:33:37;59.00;;;24.20;;
2644;SDS011;15377;48.540;9.268;2022-12-18T00:36:04;51.55;;;26.00;;
2644;SDS011;15377;48.540;9.268;2022-12-18T00:38:31;50.75;;;22.77;;
2644;SDS011;15377;48.540;9.268;2022-12-18T00:40:57;56.97;;;25.50;;
2644;SDS011;15377;48.540;9.268;2022-12-18T00:43:23;50.33;;;23.27;;
2644;SDS011;15377;48.540;9.268;2022-12-18T00:45:48;45.07;;;19.87;;
2644;SDS011;15377;48.540;9.268;2022-12-18T00:48:14;56.17;;;27.93;;
2644;SDS011;15377;48.540;9.268;2022-12-18T00:50:39;48.10;;;22.93;;
2644;SDS011;15377;48.540;9.268;2022-12-18T00:53:04;46.83;;;20.63;;
2644;SDS011;15377;48.540;9.268;2022-12-18T00:55:30;51.77;;;21.90;;
2644;SDS011;15377;48.540;9.268;2022-12-18T00:57:55;46.87;;;21.80;;
2644;SDS011;15377;48.540;9.268;2022-12-18T01:00:21;47.70;;;24.20;;
2644;SDS011;15377;48.540;9.268;2022-12-18T01:02:47;44.00;;;21.55;;
2644;SDS011;15377;48.540;9.268;2022-12-18T01:05:12;48.13;;;21.17;;
2644;SDS011;15377;48.540;9.268;2022-12-18T01:07:38;52.73;;;23.97;;
2644;SDS011;15377;48.540;9.268;2022-12-18T01:10:04;41.17;;;19.13;;
2644;SDS011;15377;48.540;9.268;2022-12-18T01:12:30;54.08;;;22.35;;
2644;SDS011;15377;48.540;9.268;2022-12-18T01:14:55;37.30;;;21.37;;
2644;SDS011;15377;48.540;9.268;2022-12-18T01:17:21;33.97;;;21.50;;
2644;SDS011;15377;48.540;9.268;2022-12-18T01:19:47;38.73;;;19.37;;
2644;SDS011;15377;48.540;9.268;2022-12-18T01:22:12;41.83;;;21.10;;
2644;SDS011;15377;48.540;9.268;2022-12-18T01:24:37;44.37;;;22.20;;
2644;SDS011;15377;48.540;9.268;2022-12-18T01:27:03;48.50;;;23.93;;
2644;SDS011;15377;48.540;9.268;2022-12-18T01:29:28;58.50;;;25.30;;
2644;SDS011;15377;48.540;9.268;2022-12-18T01:31:57;37.27;;;20.23;;
2644;SDS011;15377;48.540;9.268;2022-12-18T01:34:23;24.95;;;12.07;;
2644;SDS011;15377;48.540;9.268;2022-12-18T01:36:49;38.45;;;20.30;;
2644;SDS011;15377;48.540;9.268;2022-12-18T01:39:17;36.42;;;16.75;;
2644;SDS011;15377;48.540;9.268;2022-12-18T01:41:43;41.35;;;18.67;;
2644;SDS011;15377;48.540;9.268;2022-12-18T01:47:18;32.15;;;19.10;;
2644;SDS011;15377;48.540;9.268;2022-12-18T01:49:47;34.03;;;18.45;;
2644;SDS011;15377;48.540;9.268;2022-12-18T01:52:14;36.40;;;20.40;;
2644;SDS011;15377;48.540;9.268;2022-12-18T01:54:41;39.00;;;17.70;;
2644;SDS011;15377;48.540;9.268;2022-12-18T01:57:07;38.57;;;19.23;;
2644;SDS011;15377;48.540;9.268;2022-12-18T01:59:32;53.60;;;22.63;;
2644;SDS011;15377;48.540;9.268;2022-12-18T02:01:59;40.58;;;17.45;;
2644;SDS011;15377;48.540;9.268;2022-12-18T02:04:26;46.88;;;20.25;;
2644;SDS011;15377;48.540;9.268;2022-12-18T02:09:31;44.92;;;17.50;;
2644;SDS011;15377;48.540;9.268;2022-12-18T02:17:42;33.30;;;14.77;;
2644;SDS011;15377;48.540;9.268;2022-12-18T02:23:04;34.92;;;17.60;;
2644;SDS011;15377;48.540;9.268;2022-12-18T02:28:25;35.75;;;17.02;;
2644;SDS011;15377;48.540;9.268;2022-12-18T02:30:56;44.55;;;16.05;;
2644;SDS011;15377;48.540;9.268;2022-12-18T02:33:24;55.75;;;18.98;;
2644;SDS011;15377;48.540;9.268;2022-12-18T02:35:52;31.40;;;15.25;;
2644;SDS011;15377;48.540;9.268;2022-12-18T02:38:20;39.10;;;18.50;;
2644;SDS011;15377;48.540;9.268;2022-12-18T02:40:46;40.63;;;19.20;;
2644;SDS011;15377;48.540;9.268;2022-12-18T02:43:14;28.80;;;16.35;;
2644;SDS011;15377;48.540;9.268;2022-12-18T02:45:56;35.40;;;17.23;;
2644;SDS011;15377;48.540;9.268;2022-12-18T02:48:24;34.60;;;14.85;;
2644;SDS011;15377;48.540;9.268;2022-12-18T02:50:57;33.08;;;16.77;;
2644;SDS011;15377;48.540;9.268;2022-12-18T02:53:50;40.63;;;20.25;;
2644;SDS011;15377;48.540;9.268;2022-12-18T02:56:21;31.42;;;16.08;;
2644;SDS011;15377;48.540;9.268;2022-12-18T03:01:36;23.90;;;13.63;;
2644;SDS011;15377;48.540;9.268;2022-12-18T03:04:19;33.97;;;18.17;;
2644;SDS011;15377;48.540;9.268;2022-12-18T03:06:52;29.77;;;17.08;;
2644;SDS011;15377;48.540;9.268;2022-12-18T03:09:22;27.77;;;16.33;;
2644;SDS011;15377;48.540;9.268;2022-12-18T03:11:56;28.08;;;14.63;;
2644;SDS011;15377;48.540;9.268;2022-12-18T03:14:46;31.17;;;16.48;;
2644;SDS011;15377;48.540;9.268;2022-12-18T03:17:27;31.02;;;18.42;;
2644;SDS011;15377;48.540;9.268;2022-12-18T03:19:56;29.13;;;12.75;;
2644;SDS011;15377;48.540;9.268;2022-12-18T03:22:26;26.60;;;15.00;;
2644;SDS011;15377;48.540;9.268;2022-12-18T03:24:55;37.28;;;16.70;;
2644;SDS011;15377;48.540;9.268;2022-12-18T03:27:22;34.45;;;13.30;;
2644;SDS011;15377;48.540;9.268;2022-12-18T03:30:08;47.70;;;18.83;;
2644;SDS011;15377;48.540;9.268;2022-12-18T03:35:13;29.85;;;13.90;;
2644;SDS011;15377;48.540;9.268;2022-12-18T03:38:01;32.40;;;14.68;;
2644;SDS011;15377;48.540;9.268;2022-12-18T03:40:29;35.47;;;17.23;;
2644;SDS011;15377;48.540;9.268;2022-12-18T03:43:03;29.05;;;17.98;;
2644;SDS011;15377;48.540;9.268;2022-12-18T03:45:37;31.55;;;13.38;;
2644;SDS011;15377;48.540;9.268;2022-12-18T03:50:46;27.75;;;12.88;;
2644;SDS011;15377;48.540;9.268;2022-12-18T03:53:27;34.72;;;14.50;;
2644;SDS011;15377;48.540;9.268;2022-12-18T03:56:12;25.52;;;14.18;;
2644;SDS011;15377;48.540;9.268;2022-12-18T03:58:41;33.65;;;17.10;;
2644;SDS011;15377;48.540;9.268;2022-12-18T04:01:10;33.30;;;16.58;;
2644;SDS011;15377;48.540;9.268;2022-12-18T04:03:38;27.17;;;12.30;;
2644;SDS011;15377;48.540;9.268;2022-12-18T04:06:04;32.47;;;16.23;;
2644;SDS011;15377;48.540;9.268;2022-12-18T04:08:31;26.88;;;14.10;;
2644;SDS011;15377;48.540;9.268;2022-12-18T04:10:59;28.10;;;12.65;;
2644;SDS011;15377;48.540;9.268;2022-12-18T04:13:29;32.63;;;15.80;;
2644;SDS011;15377;48.540;9.268;2022-12-18T04:15:58;29.02;;;16.40;;
2644;SDS011;15377;48.540;9.268;2022-12-18T04:18:23;45.30;;;18.23;;
2644;SDS011;15377;48.540;9.268;2022-12-18T04:20:48;35.17;;;15.10;;
2644;SDS011;15377;48.540;9.268;2022-12-18T04:23:14;31.77;;;15.20;;
2644;SDS011;15377;48.540;9.268;2022-12-18T04:25:39;29.63;;;14.27;;
2644;SDS011;15377;48.540;9.268;2022-12-18T04:28:04;38.67;;;17.80;;
2644;SDS011;15377;48.540;9.268;2022-12-18T04:30:30;33.37;;;17.87;;
2644;SDS011;15377;48.540;9.268;2022-12-18T04:32:55;31.03;;;17.67;;
2644;SDS011;15377;48.540;9.268;2022-12-18T04:35:21;35.73;;;17.23;;
2644;SDS011;15377;48.540;9.268;2022-12-18T04:37:46;29.37;;;15.83;;
2644;SDS011;15377;48.540;9.268;2022-12-18T04:40:11;30.70;;;15.63;;
2644;SDS011;15377;48.540;9.268;2022-12-18T04:42:38;25.50;;;15.00;;
2644;SDS011;15377;48.540;9.268;2022-12-18T04:45:05;34.08;;;16.75;;
2644;SDS011;15377;48.540;9.268;2022-12-18T04:47:31;31.15;;;15.82;;
2644;SDS011;15377;48.540;9.268;2022-12-18T04:49:56;30.00;;;14.50;;
2644;SDS011;15377;48.540;9.268;2022-12-18T04:52:21;31.73;;;14.77;;
2644;SDS011;15377;48.540;9.268;2022-12-18T04:54:47;33.80;;;18.93;;
2644;SDS011;15377;48.540;9.268;2022-12-18T04:57:13;24.30;;;15.83;;
2644;SDS011;15377;48.540;9.268;2022-12-18T04:59:38;37.58;;;15.05;;
2644;SDS011;15377;48.540;9.268;2022-12-18T05:02:04;34.67;;;18.07;;
2644;SDS011;15377;48.540;9.268;2022-12-18T05:04:29;26.17;;;14.53;;
2644;SDS011;15377;48.540;9.268;2022-12-18T05:06:54;39.00;;;18.87;;
2644;SDS011;15377;48.540;9.268;2022-12-18T05:09:20;23.60;;;14.57;;
2644;SDS011;15377;48.540;9.268;2022-12-18T05:11:45;29.93;;;13.30;;
2644;SDS011;15377;48.540;9.268;2022-12-18T05:14:11;24.75;;;12.82;;
2644;SDS011;15377;48.540;9.268;2022-12-18T05:16:37;30.77;;;17.47;;
2644;SDS011;15377;48.540;9.268;2022-12-18T05:19:02;29.07;;;11.87;;
2644;SDS011;15377;48.540;9.268;2022-12-18T05:21:28;24.13;;;11.50;;
2644;SDS011;15377;48.540;9.268;2022-12-18T05:23:53;28.17;;;12.97;;
2644;SDS011;15377;48.540;9.268;2022-12-18T05:26:18;23.60;;;13.93;;
2644;SDS011;15377;48.540;9.268;2022-12-18T05:28:44;36.60;;;15.40;;
2644;SDS011;15377;48.540;9.268;2022-12-18T05:31:11;37.83;;;17.67;;
2644;SDS011;15377;48.540;9.268;2022-12-18T05:33:36;23.55;;;11.93;;
2644;SDS011;15377;48.540;9.268;2022-12-18T05:36:03;21.07;;;14.87;;
2644;SDS011;15377;48.540;9.268;2022-12-18T05:38:30;30.27;;;15.07;;
2644;SDS011;15377;48.540;9.268;2022-12-18T05:40:57;33.50;;;16.15;;
2644;SDS011;15377;48.540;9.268;2022-12-18T05:43:24;23.03;;;12.07;;
2644;SDS011;15377;48.540;9.268;2022-12-18T05:45:51;23.45;;;14.07;;
2644;SDS011;15377;48.540;9.268;2022-12-18T05:48:17;27.88;;;14.20;;
2644;SDS011;15377;48.540;9.268;2022-12-18T05:50:43;23.20;;;13.47;;
2644;SDS011;15377;48.540;9.268;2022-12-18T05:53:10;26.92;;;15.25;;
2644;SDS011;15377;48.540;9.268;2022-12-18T05:55:37;27.67;;;14.20;;
2644;SDS011;15377;48.540;9.268;2022-12-18T05:58:04;31.77;;;15.57;;
2644;SDS011;15377;48.540;9.268;2022-12-18T06:00:30;22.23;;;12.57;;
2644;SDS011;15377;48.540;9.268;2022-12-18T06:02:57;29.98;;;12.90;;
2644;SDS011;15377;48.540;9.268;2022-12-18T06:05:23;32.80;;;13.02;;
2644;SDS011;15377;48.540;9.268;2022-12-18T06:07:49;20.30;;;11.17;;
2644;SDS011;15377;48.540;9.268;2022-12-18T06:10:14;26.13;;;13.20;;
2644;SDS011;15377;48.540;9.268;2022-12-18T06:12:40;33.03;;;15.40;;
2644;SDS011;15377;48.540;9.268;2022-12-18T06:15:05;22.13;;;11.60;;
2644;SDS011;15377;48.540;9.268;2022-12-18T06:17:31;22.20;;;12.33;;
2644;SDS011;15377;48.540;9.268;2022-12-18T06:19:59;37.33;;;11.60;;
2644;SDS011;15377;48.540;9.268;2022-12-18T06:22:24;17.30;;;10.10;;
2644;SDS011;15377;48.540;9.268;2022-12-18T06:24:50;17.50;;;11.07;;
2644;SDS011;15377;48.540;9.268;2022-12-18T06:27:16;24.87;;;12.13;;
2644;SDS011;15377;48.540;9.268;2022-12-18T06:29:41;28.50;;;11.77;;
2644;SDS011;15377;48.540;9.268;2022-12-18T06:32:07;10.50;;;6.07;;
2644;SDS011;15377;48.540;9.268;2022-12-18T06:34:32;36.50;;;14.10;;
2644;SDS011;15377;48.540;9.268;2022-12-18T06:36:58;23.57;;;10.97;;
2644;SDS011;15377;48.540;9.268;2022-12-18T06:39:24;30.47;;;11.47;;
2644;SDS011;15377;48.540;9.268;2022-12-18T06:41:49;24.30;;;11.87;;
2644;SDS011;15377;48.540;9.268;2022-12-18T06:44:15;16.67;;;7.07;;
2644;SDS011;15377;48.540;9.268;2022-12-18T06:46:40;22.23;;;10.40;;
2644;SDS011;15377;48.540;9.268;2022-12-18T06:49:05;20.13;;;12.47;;
2644;SDS011;15377;48.540;9.268;2022-12-18T06:51:31;24.97;;;11.00;;
2644;SDS011;15377;48.540;9.268;2022-12-18T06:53:57;28.80;;;11.27;;
2644;SDS011;15377;48.540;9.268;2022-12-18T06:56:22;23.63;;;11.23;;
2644;SDS011;15377;48.540;9.268;2022-12-18T06:58:51;24.10;;;13.30;;
2644;SDS011;15377;48.540;9.268;2022-12-18T07:01:16;21.55;;;13.00;;
2644;SDS011;15377;48.540;9.268;2022-12-18T07:03:42;29.77;;;17.23;;
2644;SDS011;15377;48.540;9.268;2022-12-18T07:06:14;13.23;;;7.43;;
2644;SDS011;15377;48.540;9.268;2022-12-18T07:08:41;27.33;;;10.25;;
2644;SDS011;15377;48.540;9.268;2022-12-18T07:11:06;19.30;;;10.90;;
2644;SDS011;15377;48.540;9.268;2022-12-18T07:13:31;26.77;;;12.83;;
2644;SDS011;15377;48.540;9.268;2022-12-18T07:16:07;21.40;;;10.87;;
2644;SDS011;15377;48.540;9.268;2022-12-18T07:18:34;27.55;;;13.48;;
2644;SDS011;15377;48.540;9.268;2022-12-18T07:21:07;26.95;;;13.55;;
2644;SDS011;15377;48.540;9.268;2022-12-18T07:23:37;35.60;;;9.85;;
2644;SDS011;15377;48.540;9.268;2022-12-18T07:26:03;21.03;;;12.00;;
2644;SDS011;15377;48.540;9.268;2022-12-18T07:28:30;34.72;;;14.40;;
2644;SDS011;15377;48.540;9.268;2022-12-18T07:30:56;19.33;;;10.45;;
2644;SDS011;15377;48.540;9.268;2022-12-18T07:33:22;25.43;;;13.40;;
2644;SDS011;15377;48.540;9.268;2022-12-18T07:35:47;37.70;;;18.70;;
2644;SDS011;15377;48.540;9.268;2022-12-18T07:38:12;31.23;;;14.10;;
2644;SDS011;15377;48.540;9.268;2022-12-18T07:40:38;15.20;;;8.87;;
2644;SDS011;15377;48.540;9.268;2022-12-18T07:43:03;24.67;;;10.63;;
2644;SDS011;15377;48.540;9.268;2022-12-18T07:45:31;23.47;;;12.87;;
2644;SDS011;15377;48.540;9.268;2022-12-18T07:47:57;22.75;;;12.60;;
2644;SDS011;15377;48.540;9.268;2022-12-18T07:50:22;30.07;;;13.83;;
2644;SDS011;15377;48.540;9.268;2022-12-18T07:52:48;22.80;;;11.90;;
2644;SDS011;15377;48.540;9.268;2022-12-18T07:55:14;33.40;;;14.60;;
2644;SDS011;15377;48.540;9.268;2022-12-18T07:57:39;22.73;;;12.33;;
2644;SDS011;15377;48.540;9.268;2022-12-18T08:00:05;23.90;;;12.30;;
2644;SDS011;15377;48.540;9.268;2022-12-18T08:02:31;20.42;;;9.02;;
2644;SDS011;15377;48.540;9.268;2022-12-18T08:04:56;27.53;;;12.00;;
2644;SDS011;15377;48.540;9.268;2022-12-18T08:07:22;23.77;;;13.55;;
2644;SDS011;15377;48.540;9.268;2022-12-18T08:09:48;26.17;;;13.27;;
2644;SDS011;15377;48.540;9.268;2022-12-18T08:12:13;24.43;;;13.57;;
2644;SDS011;15377;48.540;9.268;2022-12-18T08:14:38;16.20;;;8.90;;
2644;SDS011;15377;48.540;9.268;2022-12-18T08:17:04;32.13;;;11.87;;
2644;SDS011;15377;48.540;9.268;2022-12-18T08:19:29;16.90;;;8.17;;
2644;SDS011;15377;48.540;9.268;2022-12-18T08:21:55;22.33;;;12.63;;
2644;SDS011;15377;48.540;9.268;2022-12-18T08:24:20;17.87;;;9.10;;
2644;SDS011;15377;48.540;9.268;2022-12-18T08:26:45;29.03;;;13.70;;
2644;SDS011;15377;48.540;9.268;2022-12-18T08:29:11;29.53;;;12.67;;
2644;SDS011;15377;48.540;9.268;2022-12-18T08:31:36;44.30;;;14.57;;
2644;SDS011;15377;48.540;9.268;2022-12-18T08:34:02;22.90;;;11.90;;
2644;SDS011;15377;48.540;9.268;2022-12-18T08:36:27;32.87;;;11.90;;
2644;SDS011;15377;48.540;9.268;2022-12-18T08:38:53;30.90;;;13.83;;
2644;SDS011;15377;48.540;9.268;2022-12-18T08:41:18;28.10;;;15.30;;
2644;SDS011;15377;48.540;9.268;2022-12-18T08:43:44;31.63;;;10.70;;
2644;SDS011;15377;48.540;9.268;2022-12-18T08:46:31;35.90;;;15.82;;
2644;SDS011;15377;48.540;9.268;2022-12-18T08:48:59;29.50;;;14.80;;
2644;SDS011;15377;48.540;9.268;2022-12-18T08:51:24;33.43;;;14.43;;
2644;SDS011;15377;48.540;9.268;2022-12-18T08:53:50;42.47;;;16.03;;
2644;SDS011;15377;48.540;9.268;2022-12-18T08:56:15;33.90;;;12.07;;
2644;SDS011;15377;48.540;9.268;2022-12-18T08:58:41;28.77;;;14.37;;
2644;SDS011;15377;48.540;9.268;2022-12-18T09:01:07;33.07;;;19.20;;
2644;SDS011;15377;48.540;9.268;2022-12-18T09:03:34;27.98;;;15.68;;
2644;SDS011;15377;48.540;9.268;2022-12-18T09:06:00;33.53;;;15.73;;
2644;SDS011;15377;48.540;9.268;2022-12-18T09:08:26;26.50;;;15.60;;
2644;SDS011;15377;48.540;9.268;2022-12-18T09:10:52;39.60;;;18.83;;
2644;SDS011;15377;48.540;9.268;2022-12-18T09:13:17;42.00;;;18.30;;
2644;SDS011;15377;48.540;9.268;2022-12-18T09:15:47;34.30;;;16.57;;
2644;SDS011;15377;48.540;9.268;2022-12-18T09:18:14;35.28;;;15.50;;
2644;SDS011;15377;48.540;9.268;2022-12-18T09:20:41;34.30;;;18.42;;
2644;SDS011;15377;48.540;9.268;2022-12-18T09:23:07;27.20;;;13.80;;
2644;SDS011;15377;48.540;9.268;2022-12-18T09:25:34;40.75;;;20.27;;
2644;SDS011;15377;48.540;9.268;2022-12-18T09:28:01;30.35;;;16.63;;
2644;SDS011;15377;48.540;9.268;2022-12-18T09:30:27;34.97;;;18.90;;
2644;SDS011;15377;48.540;9.268;2022-12-18T09:32:55;34.33;;;22.10;;
2644;SDS011;15377;48.540;9.268;2022-12-18T09:35:21;32.83;;;18.50;;
2644;SDS011;15377;48.540;9.268;2022-12-18T09:37:46;34.80;;;18.33;;
2644;SDS011;15377;48.540;9.268;2022-12-18T09:40:16;43.90;;;18.90;;
2644;SDS011;15377;48.540;9.268;2022-12-18T09:42:45;33.60;;;20.33;;
2644;SDS011;15377;48.540;9.268;2022-12-18T09:45:15;37.08;;;19.55;;
2644;SDS011;15377;48.540;9.268;2022-12-18T09:47:42;34.45;;;18.83;;
2644;SDS011;15377;48.540;9.268;2022-12-18T09:52:57;34.25;;;19.45;;
2644;SDS011;15377;48.540;9.268;2022-12-18T09:55:32;39.20;;;20.33;;
2644;SDS011;15377;48.540;9.268;2022-12-18T09:58:06;34.13;;;19.42;;
2644;SDS011;15377;48.540;9.268;2022-12-18T10:00:43;35.38;;;20.90;;
2644;SDS011;15377;48.540;9.268;2022-12-18T10:03:09;40.35;;;19.27;;
2644;SDS011;15377;48.540;9.268;2022-12-18T10:05:41;44.10;;;18.88;;
2644;SDS011;15377;48.540;9.268;2022-12-18T10:11:01;40.08;;;22.10;;
2644;SDS011;15377;48.540;9.268;2022-12-18T10:13:42;36.20;;;19.25;;
2644;SDS011;15377;48.540;9.268;2022-12-18T10:21:20;46.13;;;25.08;;
2644;SDS011;15377;48.540;9.268;2022-12-18T10:23:53;47.10;;;23.85;;
2644;SDS011;15377;48.540;9.268;2022-12-18T10:26:44;44.80;;;24.45;;
2644;SDS011;15377;48.540;9.268;2022-12-18T10:29:18;34.75;;;20.98;;
2644;SDS011;15377;48.540;9.268;2022-12-18T10:31:43;46.10;;;23.40;;
2644;SDS011;15377;48.540;9.268;2022-12-18T10:34:10;51.87;;;24.03;;
2644;SDS011;15377;48.540;9.268;2022-12-18T10:36:36;49.28;;;27.45;;
2644;SDS011;15377;48.540;9.268;2022-12-18T10:39:15;49.47;;;26.05;;
2644;SDS011;15377;48.540;9.268;2022-12-18T10:41:49;53.35;;;25.40;;
2644;SDS011;15377;48.540;9.268;2022-12-18T10:44:19;48.47;;;22.47;;
2644;SDS011;15377;48.540;9.268;2022-12-18T10:46:46;35.13;;;20.98;;
2644;SDS011;15377;48.540;9.268;2022-12-18T10:49:31;44.95;;;23.02;;
2644;SDS011;15377;48.540;9.268;2022-12-18T10:52:16;43.88;;;22.98;;
2644;SDS011;15377;48.540;9.268;2022-12-18T10:54:48;62.03;;;25.83;;
2644;SDS011;15377;48.540;9.268;2022-12-18T10:57:37;49.90;;;23.58;;
2644;SDS011;15377;48.540;9.268;2022-12-18T11:02:54;54.00;;;24.40;;
2644;SDS011;15377;48.540;9.268;2022-12-18T11:05:26;51.13;;;23.20;;
2644;SDS011;15377;48.540;9.268;2022-12-18T11:07:54;44.42;;;23.10;;
2644;SDS011;15377;48.540;9.268;2022-12-18T11:10:21;54.38;;;25.90;;
2644;SDS011;15377;48.540;9.268;2022-12-18T11:13:23;44.30;;;23.92;;
2644;SDS011;15377;48.540;9.268;2022-12-18T11:15:51;55.55;;;25.35;;
2644;SDS011;15377;48.540;9.268;2022-12-18T11:18:27;48.87;;;27.20;;
2644;SDS011;15377;48.540;9.268;2022-12-18T11:20:56;46.80;;;25.67;;
2644;SDS011;15377;48.540;9.268;2022-12-18T11:23:24;42.92;;;24.85;;
2644;SDS011;15377;48.540;9.268;2022-12-18T11:25:58;44.65;;;25.83;;
2644;SDS011;15377;48.540;9.268;2022-12-18T11:28:26;51.70;;;27.98;;
2644;SDS011;15377;48.540;9.268;2022-12-18T11:33:38;46.92;;;25.02;;
2644;SDS011;15377;48.540;9.268;2022-12-18T11:36:08;47.35;;;26.02;;
2644;SDS011;15377;48.540;9.268;2022-12-18T11:38:36;46.95;;;27.52;;
2644;SDS011;15377;48.540;9.268;2022-12-18T11:46:39;51.90;;;27.50;;
2644;SDS011;15377;48.540;9.268;2022-12-18T11:49:14;51.67;;;25.15;;
2644;SDS011;15377;48.540;9.268;2022-12-18T11:52:10;57.70;;;30.80;;
2644;SDS011;15377;48.540;9.268;2022-12-18T12:01:15;45.28;;;23.88;;
2644;SDS011;15377;48.540;9.268;2022-12-18T12:12:34;52.92;;;27.10;;
2644;SDS011;15377;48.540;9.268;2022-12-18T12:21:12;58.83;;;29.10;;
2644;SDS011;15377;48.540;9.268;2022-12-18T12:37:00;45.65;;;23.92;;
2644;SDS011;15377;48.540;9.268;2022-12-18T12:39:30;52.60;;;28.92;;
2644;SDS011;15377;48.540;9.268;2022-12-18T12:42:00;61.15;;;29.98;;
2644;SDS011;15377;48.540;9.268;2022-12-18T12:44:49;42.42;;;26.08;;
2644;SDS011;15377;48.540;9.268;2022-12-18T12:47:20;50.33;;;29.20;;
2644;SDS011;15377;48.540;9.268;2022-12-18T12:49:50;44.38;;;27.42;;
2644;SDS011;15377;48.540;9.268;2022-12-18T12:52:39;57.72;;;29.58;;
2644;SDS011;15377;48.540;9.268;2022-12-18T12:55:07;52.70;;;24.92;;
2644;SDS011;15377;48.540;9.268;2022-12-18T12:57:41;54.08;;;28.63;;
2644;SDS011;15377;48.540;9.268;2022-12-18T13:00:19;47.00;;;27.25;;
2644;SDS011;15377;48.540;9.268;2022-12-18T13:05:48;47.00;;;26.58;;
2644;SDS011;15377;48.540;9.268;2022-12-18T13:08:24;48.30;;;26.75;;
2644;SDS011;15377;48.540;9.268;2022-12-18T13:10:52;52.70;;;26.88;;
2644;SDS011;15377;48.540;9.268;2022-12-18T13:16:15;51.38;;;27.13;;
2644;SDS011;15377;48.540;9.268;2022-12-18T13:19:19;48.45;;;26.80;;
2644;SDS011;15377;48.540;9.268;2022-12-18T13:21:46;56.45;;;31.02;;
2644;SDS011;15377;48.540;9.268;2022-12-18T13:24:25;53.05;;;27.92;;
2644;SDS011;15377;48.540;9.268;2022-12-18T13:26:54;55.35;;;31.20;;
2644;SDS011;15377;48.540;9.268;2022-12-18T13:32:22;65.70;;;35.70;;
2644;SDS011;15377;48.540;9.268;2022-12-18T13:35:03;81.32;;;50.05;;
2644;SDS011;15377;48.540;9.268;2022-12-18T13:37:53;58.28;;;33.97;;
2644;SDS011;15377;48.540;9.268;2022-12-18T13:43:15;56.78;;;32.25;;
2644;SDS011;15377;48.540;9.268;2022-12-18T13:45:50;48.40;;;29.30;;
2644;SDS011;15377;48.540;9.268;2022-12-18T13:48:24;52.75;;;32.92;;
2644;SDS011;15377;48.540;9.268;2022-12-18T13:51:01;52.38;;;32.53;;
2644;SDS011;15377;48.540;9.268;2022-12-18T13:53:33;55.90;;;29.70;;
2644;SDS011;15377;48.540;9.268;2022-12-18T13:56:03;45.20;;;26.40;;
2644;SDS011;15377;48.540;9.268;2022-12-18T13:58:29;53.85;;;31.35;;
2644;SDS011;15377;48.540;9.268;2022-12-18T14:00:54;53.27;;;28.97;;
2644;SDS011;15377;48.540;9.268;2022-12-18T14:03:24;57.83;;;27.03;;
2644;SDS011;15377;48.540;9.268;2022-12-18T14:05:52;47.33;;;27.95;;
2644;SDS011;15377;48.540;9.268;2022-12-18T14:08:24;47.60;;;28.33;;
2644;SDS011;15377;48.540;9.268;2022-12-18T14:10:55;53.55;;;28.50;;
2644;SDS011;15377;48.540;9.268;2022-12-18T14:13:24;50.63;;;27.93;;
2644;SDS011;15377;48.540;9.268;2022-12-18T14:16:11;53.97;;;28.02;;
2644;SDS011;15377;48.540;9.268;2022-12-18T14:18:56;48.50;;;27.65;;
2644;SDS011;15377;48.540;9.268;2022-12-18T14:21:25;48.35;;;28.15;;
2644;SDS011;15377;48.540;9.268;2022-12-18T14:26:40;42.63;;;26.20;;
2644;SDS011;15377;48.540;9.268;2022-12-18T14:29:19;48.88;;;25.95;;
2644;SDS011;15377;48.540;9.268;2022-12-18T14:32:06;46.40;;;25.67;;
2644;SDS011;15377;48.540;9.268;2022-12-18T14:34:34;57.75;;;29.75;;
2644;SDS011;15377;48.540;9.268;2022-12-18T14:37:00;51.90;;;28.50;;
2644;SDS011;15377;48.540;9.268;2022-12-18T14:39:25;57.13;;;29.33;;
2644;SDS011;15377;48.540;9.268;2022-12-18T14:41:51;45.17;;;24.93;;
2644;SDS011;15377;48.540;9.268;2022-12-18T14:44:16;55.92;;;27.17;;
2644;SDS011;15377;48.540;9.268;2022-12-18T14:46:43;49.83;;;27.77;;
2644;SDS011;15377;48.540;9.268;2022-12-18T14:49:30;51.20;;;28.75;;
2644;SDS011;15377;48.540;9.268;2022-12-18T14:52:04;58.40;;;28.00;;
2644;SDS011;15377;48.540;9.268;2022-12-18T14:54:31;51.90;;;28.27;;
2644;SDS011;15377;48.540;9.268;2022-12-18T14:57:03;48.10;;;28.83;;
2644;SDS011;15377;48.540;9.268;2022-12-18T14:59:29;52.40;;;30.50;;
2644;SDS011;15377;48.540;9.268;2022-12-18T15:04:27;61.90;;;32.47;;
2644;SDS011;15377;48.540;9.268;2022-12-18T15:07:03;63.35;;;30.48;;
2644;SDS011;15377;48.540;9.268;2022-12-18T15:09:38;54.15;;;31.45;;
2644;SDS011;15377;48.540;9.268;2022-12-18T15:12:17;50.22;;;30.20;;
2644;SDS011;15377;48.540;9.268;2022-12-18T15:14:49;49.80;;;27.63;;
2644;SDS011;15377;48.540;9.268;2022-12-18T15:17:16;52.57;;;31.50;;
2644;SDS011;15377;48.540;9.268;2022-12-18T15:19:44;58.60;;;32.38;;
2644;SDS011;15377;48.540;9.268;2022-12-18T15:22:15;71.30;;;37.80;;
2644;SDS011;15377;48.540;9.268;2022-12-18T15:24:45;74.03;;;37.05;;
2644;SDS011;15377;48.540;9.268;2022-12-18T15:30:20;73.68;;;36.17;;
2644;SDS011;15377;48.540;9.268;2022-12-18T15:32:48;77.10;;;38.13;;
2644;SDS011;15377;48.540;9.268;2022-12-18T15:35:16;72.53;;;35.83;;
2644;SDS011;15377;48.540;9.268;2022-12-18T15:37:43;65.93;;;35.15;;
2644;SDS011;15377;48.540;9.268;2022-12-18T15:40:13;67.70;;;32.95;;
2644;SDS011;15377;48.540;9.268;2022-12-18T15:42:40;64.30;;;35.17;;
2644;SDS011;15377;48.540;9.268;2022-12-18T15:45:24;53.38;;;30.05;;
2644;SDS011;15377;48.540;9.268;2022-12-18T15:47:49;56.60;;;29.87;;
2644;SDS011;15377;48.540;9.268;2022-12-18T15:50:14;49.90;;;28.23;;
2644;SDS011;15377;48.540;9.268;2022-12-18T15:52:41;54.27;;;28.03;;
2644;SDS011;15377;48.540;9.268;2022-12-18T15:55:12;58.80;;;29.30;;
2644;SDS011;15377;48.540;9.268;2022-12-18T15:58:01;52.97;;;27.60;;
2644;SDS011;15377;48.540;9.268;2022-12-18T16:00:27;67.53;;;35.07;;
2644;SDS011;15377;48.540;9.268;2022-12-18T16:02:52;61.63;;;33.07;;
2644;SDS011;15377;48.540;9.268;2022-12-18T16:05:18;64.07;;;32.13;;
2644;SDS011;15377;48.540;9.268;2022-12-18T16:07:45;66.30;;;34.63;;
2644;SDS011;15377;48.540;9.268;2022-12-18T16:10:11;67.47;;;35.30;;
2644;SDS011;15377;48.540;9.268;2022-12-18T16:12:37;52.83;;;26.93;;
2644;SDS011;15377;48.540;9.268;2022-12-18T16:15:03;61.03;;;28.90;;
2644;SDS011;15377;48.540;9.268;2022-12-18T16:17:30;44.30;;;25.65;;
2644;SDS011;15377;48.540;9.268;2022-12-18T16:19:55;43.30;;;23.17;;
2644;SDS011;15377;48.540;9.268;2022-12-18T16:22:26;45.80;;;25.00;;
2644;SDS011;15377;48.540;9.268;2022-12-18T16:24:53;46.95;;;23.02;;
2644;SDS011;15377;48.540;9.268;2022-12-18T16:27:20;45.63;;;24.35;;
2644;SDS011;15377;48.540;9.268;2022-12-18T16:29:47;53.17;;;25.10;;